Latest Weather Observations for West Roebuck

IDW60801

Issued at 11:24 pm WST Friday 28 February 2020 (issued every 10 minutes, with the page automatically refreshed every 10 minutes)

About weather observations | Map of weather stations | Latest weather observations for WA | Other Formats
Station Details ID: 003096 Name: WEST ROEBUCK Lat: -17.90 Lon: 122.31 Height: 32.0 m
Data from the previous 72 hours. | See also: Recent months at West Roebuck
Date/Time
WST
Temp
°C
App
Temp
°C
Dew
Point
°C
Rel
Hum
%
Delta-T
°C
Wind Press
QNH
hPa
Press
MSL
hPa
Rain since
9am
mm
Dir  Spd
km/h
Gust
km/h
Spd
kts
Gust
kts
28/11:00pm 29.7 - - - - CALM 0 0 0 0 - - 0.0
28/10:30pm 30.5 - - - - CALM 0 0 0 0 - - 0.0
28/10:00pm 30.4 - - - - N 2 7 1 4 - - 0.0
28/09:30pm 30.2 - - - - NNW 4 6 2 3 - - 0.0
28/09:00pm 30.3 - - - - CALM 0 0 0 0 - - 0.0
28/08:30pm 30.2 - - - - NE 4 7 2 4 - - 0.0
28/08:00pm 30.2 - - - - SW 4 11 2 6 - - 0.0
28/07:30pm 30.4 - - - - WSW 11 17 6 9 - - 0.0
28/07:00pm 30.6 - - - - SW 13 24 7 13 - - 0.0
28/06:30pm 30.9 - - - - WSW 17 30 9 16 - - 0.0
28/06:00pm 31.4 - - - - WSW 15 24 8 13 - - 0.0
28/05:30pm 32.2 - - - - WSW 17 28 9 15 - - 0.0
28/05:00pm 33.0 - - - - WSW 17 28 9 15 - - 0.0
28/04:30pm 33.6 - - - - WSW 17 26 9 14 - - 0.0
28/04:00pm 33.5 - - - - SW 17 28 9 15 - - 0.0
28/03:30pm 33.8 - - - - WSW 17 24 9 13 - - 0.0
28/03:00pm 34.8 - - - - SW 17 26 9 14 - - 0.0
28/02:30pm 35.0 - - - - WSW 17 28 9 15 - - 0.0
28/02:00pm 35.1 - - - - WSW 20 28 11 15 - - 0.0
28/01:30pm 35.3 - - - - WSW 19 30 10 16 - - 0.0
28/01:00pm 35.1 - - - - WSW 17 28 9 15 - - 0.0
28/12:30pm 35.8 - - - - SSW 15 24 8 13 - - 0.0
28/12:00pm 34.8 - - - - SSW 17 28 9 15 - - 0.0
28/11:30am 34.4 - - - - SSW 15 28 8 15 - - 0.0
28/11:00am 34.0 - - - - SSW 15 24 8 13 - - 0.0
28/10:30am 33.3 - - - - SSW 17 28 9 15 - - 0.0
28/10:00am 32.2 - - - - SSW 17 26 9 14 - - 0.0
28/09:30am 32.2 - - - - SSW 17 28 9 15 - - 0.0
28/09:00am 31.5 - - - - SSW 17 26 9 14 - - 0.0
28/08:30am 31.4 - - - - SSW 13 22 7 12 - - 0.0
28/08:00am 31.1 - - - - SSW 11 19 6 10 - - 0.0
28/07:30am 30.4 - - - - SSW 9 17 5 9 - - 0.0
28/07:00am 29.5 - - - - SSW 6 9 3 5 - - 0.0
28/06:30am 28.6 - - - - SW 6 9 3 5 - - 0.0
28/06:00am 28.1 - - - - WSW 6 9 3 5 - - 0.0
28/05:30am 28.3 - - - - SW 9 13 5 7 - - 0.0
28/05:00am 28.4 - - - - SW 7 13 4 7 - - 0.0
28/04:30am 28.6 - - - - SW 9 13 5 7 - - 0.0
28/04:00am 28.7 - - - - SW 9 13 5 7 - - 0.0
28/03:30am 28.7 - - - - SW 9 13 5 7 - - 0.0
28/03:00am 28.7 - - - - WSW 11 15 6 8 - - 0.0
28/02:30am 28.7 - - - - WSW 11 17 6 9 - - 0.0
28/02:00am 28.9 - - - - SW 13 20 7 11 - - 0.0
28/01:30am 28.8 - - - - SW 11 19 6 10 - - 0.0
28/01:00am 28.8 - - - - SW 11 17 6 9 - - 0.0
28/12:30am 29.0 - - - - WSW 13 22 7 12 - - 0.0
28/12:00am 28.8 - - - - WSW 11 15 6 8 - - 0.0
 
Date/Time
WST
Temp
°C
App
Temp
°C
Dew
Point
°C
Rel
Hum
%
Delta-T
°C
Wind Press
QNH
hPa
Press
MSL
hPa
Rain since
9am
mm
Dir  Spd
km/h
Gust
km/h
Spd
kts
Gust
kts
27/11:30pm 28.7 - - - - SW 11 17 6 9 - - 0.0
27/11:00pm 27.7 - - - - W 9 13 5 7 - - 0.0
27/10:30pm 27.3 - - - - WSW 9 15 5 8 - - 0.0
27/10:00pm 26.7 - - - - W 17 24 9 13 - - 0.0
27/09:30pm 26.4 - - - - WNW 17 26 9 14 - - 0.0
27/09:00pm 27.0 - - - - NNW 19 32 10 17 - - 0.0
27/08:30pm 29.6 - - - - SW 7 17 4 9 - - 0.0
27/08:00pm 29.6 - - - - WSW 13 20 7 11 - - 0.0
27/07:30pm 29.6 - - - - WSW 11 20 6 11 - - 0.0
27/07:00pm 29.6 - - - - WSW 13 20 7 11 - - 0.0
27/06:30pm 29.7 - - - - W 15 22 8 12 - - 0.0
27/06:00pm 30.1 - - - - W 19 28 10 15 - - 0.0
27/05:30pm 30.8 - - - - WSW 20 28 11 15 - - 0.0
27/05:00pm 31.8 - - - - W 19 28 10 15 - - 0.0
27/04:30pm 32.3 - - - - W 20 28 11 15 - - 0.0
27/04:00pm 32.8 - - - - W 19 28 10 15 - - 0.0
27/03:30pm 33.1 - - - - WSW 17 28 9 15 - - 0.0
27/03:00pm 33.6 - - - - WSW 17 24 9 13 - - 0.0
27/02:30pm 33.3 - - - - WSW 15 24 8 13 - - 0.0
27/02:00pm 33.7 - - - - WSW 17 26 9 14 - - 0.0
27/01:30pm 33.7 - - - - WSW 17 28 9 15 - - 0.0
27/01:00pm 34.0 - - - - WSW 15 24 8 13 - - 0.0
27/12:30pm 33.5 - - - - SW 15 24 8 13 - - 0.0
27/12:00pm 33.6 - - - - WSW 15 24 8 13 - - 0.0
27/11:30am 33.6 - - - - WSW 13 24 7 13 - - 0.0
27/11:00am 33.7 - - - - SW 11 20 6 11 - - 0.0
27/10:30am 32.7 - - - - WSW 11 19 6 10 - - 0.0
27/10:00am 32.2 - - - - SW 11 20 6 11 - - 0.0
27/09:30am 32.3 - - - - WSW 9 17 5 9 - - 0.0
27/09:00am 32.4 - - - - WSW 11 20 6 11 - - 0.0
27/08:30am 30.9 - - - - SW 13 22 7 12 - - 0.0
27/08:00am 31.5 - - - - WSW 9 15 5 8 - - 0.0
27/07:30am 30.8 - - - - SW 11 17 6 9 - - 0.0
27/07:00am 29.4 - - - - W 2 6 1 3 - - 0.0
27/06:30am 28.1 - - - - WNW 4 6 2 3 - - 0.0
27/06:00am 27.6 - - - - W 7 9 4 5 - - 0.0
27/05:30am 28.0 - - - - W 4 7 2 4 - - 0.0
27/05:00am 28.2 - - - - W 7 9 4 5 - - 0.0
27/04:30am 28.3 - - - - W 9 13 5 7 - - 0.0
27/04:00am 28.4 - - - - W 9 13 5 7 - - 0.0
27/03:30am 28.5 - - - - W 9 11 5 6 - - 0.0
27/03:00am 28.6 - - - - W 11 17 6 9 - - 0.0
27/02:30am 28.5 - - - - W 11 20 6 11 - - 0.0
27/02:00am 28.6 - - - - W 13 20 7 11 - - 0.0
27/01:30am 28.7 - - - - W 13 20 7 11 - - 0.0
27/01:00am 28.6 - - - - W 13 22 7 12 - - 0.0
27/12:30am 28.7 - - - - W 15 24 8 13 - - 0.0
27/12:00am 28.8 - - - - WNW 13 22 7 12 - - 0.0
 
Date/Time
WST
Temp
°C
App
Temp
°C
Dew
Point
°C
Rel
Hum
%
Delta-T
°C
Wind Press
QNH
hPa
Press
MSL
hPa
Rain since
9am
mm
Dir  Spd
km/h
Gust
km/h
Spd
kts
Gust
kts
26/11:30pm 28.8 - - - - WNW 13 20 7 11 - - 0.0
26/11:00pm 28.8 - - - - WNW 15 20 8 11 - - 0.0
26/10:30pm 28.8 - - - - WNW 13 19 7 10 - - 0.0
26/10:00pm 28.9 - - - - W 15 22 8 12 - - 0.0
26/09:30pm 29.0 - - - - W 13 20 7 11 - - 0.0
26/09:00pm 29.0 - - - - WNW 13 19 7 10 - - 0.0
26/08:30pm 28.9 - - - - W 13 19 7 10 - - 0.0
26/08:00pm 28.7 - - - - W 11 13 6 7 - - 0.0
26/07:30pm 28.7 - - - - W 9 11 5 6 - - 0.0
26/07:00pm 29.0 - - - - W 9 15 5 8 - - 0.0
26/06:30pm 29.4 - - - - W 11 17 6 9 - - 0.0
26/06:00pm 30.0 - - - - W 15 20 8 11 - - 0.0
26/05:30pm 30.9 - - - - W 15 26 8 14 - - 0.0
26/05:00pm 31.8 - - - - W 19 24 10 13 - - 0.0
26/04:30pm 32.1 - - - - WSW 19 28 10 15 - - 0.0
26/04:00pm 32.7 - - - - W 19 28 10 15 - - 0.0
26/03:30pm 33.1 - - - - W 19 30 10 16 - - 0.0
26/03:00pm 33.0 - - - - W 15 22 8 12 - - 0.0
26/02:30pm 33.5 - - - - W 15 24 8 13 - - 0.0
26/02:00pm 33.2 - - - - W 17 26 9 14 - - 0.0
26/01:30pm 34.1 - - - - WSW 17 24 9 13 - - 0.0
26/01:00pm 34.2 - - - - WSW 17 24 9 13 - - 0.0
26/12:30pm 33.3 - - - - WSW 17 28 9 15 - - 0.0
26/12:00pm 33.1 - - - - W 15 28 8 15 - - 0.0
26/11:30am 33.4 - - - - WSW 17 24 9 13 - - 0.0
26/11:00am 33.2 - - - - WSW 15 24 8 13 - - 0.0
26/10:30am 32.3 - - - - WSW 13 20 7 11 - - 0.0
26/10:00am 32.8 - - - - W 15 24 8 13 - - 0.0
26/09:30am 32.6 - - - - WSW 15 26 8 14 - - 0.0
26/09:00am 31.1 - - - - W 13 24 7 13 - - 0.0
26/08:30am 31.3 - - - - SW 13 20 7 11 - - 0.0
26/08:00am 30.4 - - - - WSW 11 19 6 10 - - 0.0
26/07:30am 30.1 - - - - WSW 11 20 6 11 - - 0.0
26/07:00am 29.4 - - - - W 9 15 5 8 - - 0.0
26/06:30am 27.8 - - - - W 7 11 4 6 - - 0.0
26/06:00am 27.2 - - - - W 7 9 4 5 - - 0.0
26/05:30am 27.2 - - - - W 7 11 4 6 - - 0.0
26/05:00am 27.3 - - - - W 7 9 4 5 - - 0.0
26/04:30am 27.3 - - - - WNW 7 11 4 6 - - 0.0
26/04:00am 27.4 - - - - W 7 13 4 7 - - 0.0
26/03:30am 27.7 - - - - WNW 9 13 5 7 - - 0.0
26/03:00am 28.0 - - - - WNW 9 15 5 8 - - 0.0
26/02:30am 27.9 - - - - WNW 9 13 5 7 - - 0.0
26/02:00am 27.9 - - - - WNW 9 15 5 8 - - 0.0
26/01:30am 28.0 - - - - WNW 11 20 6 11 - - 0.0
26/01:00am 28.1 - - - - WNW 11 17 6 9 - - 0.0
26/12:30am 28.2 - - - - WNW 11 17 6 9 - - 0.0
26/12:00am 28.3 - - - - WNW 11 19 6 10 - - 0.0
 
Date/Time
WST
Temp
°C
App
Temp
°C
Dew
Point
°C
Rel
Hum
%
Delta-T
°C
Wind Press
QNH
hPa
Press
MSL
hPa
Rain since
9am
mm
Dir  Spd
km/h
Gust
km/h
Spd
kts
Gust
kts
25/11:30pm 28.5 - - - - WNW 13 20 7 11 - - 0.0

Other formats

Comma delimited format used in spreadsheet applications
http://www.bom.gov.au/fwo/IDW60801/IDW60801.95204.axf

JavaScript Object Notation format (JSON) in row-major order
http://www.bom.gov.au/fwo/IDW60801/IDW60801.95204.json

Data quality

Most of these data are generated automatically and are frequently updated. Quality checks on data are not normally performed. It is possible for incorrect values to appear. Refer to information at About Latest Weather Observations and please check the disclaimer before using these data.